Time;durP1;ratioP1;P1;durP2;ratioP2;P2;SDS_P1;SDS_P2;PMS_P1;PMS_P2;Temp;Humidity;BMP_temperature;BMP_pressure;BME280_temperature;BME280_humidity;BME280_pressure;Samples;Min_cycle;Max_cycle;Signal;HPM_P1;HPM_P2
2022/06/25 00:02:00;;;;;;;;;;;18.00;81.00;;;;;;6112156;23;20254;-82
2022/06/25 00:07:13;;;;;;;;;;;17.90;80.70;;;;;;6125474;23;19921;-82
2022/06/25 00:09:39;;;;;;;;;;;17.90;80.80;;;;;;6100208;23;19928;-82
2022/06/25 00:14:52;;;;;;;;;;;17.90;80.70;;;;;;6124862;23;19968;-82
2022/06/25 00:17:20;;;;;;;;;;;17.90;80.70;;;;;;6117488;23;19926;-82
2022/06/25 00:19:47;;;;;;;;;;;17.90;80.80;;;;;;6094855;23;19945;-81
2022/06/25 00:22:14;;;;;;;;;;;17.90;80.50;;;;;;6111934;23;19928;-81
2022/06/25 00:24:41;;;;;;;;;;;17.90;80.00;;;;;;6114474;23;19921;-82
2022/06/25 00:27:08;;;;;;;;;;;17.80;79.60;;;;;;6098479;23;20258;-82
2022/06/25 00:29:35;;;;;;;;;;;17.80;79.50;;;;;;6115551;23;19952;-81
2022/06/25 00:32:02;;;;;;;;;;;17.80;79.30;;;;;;6096680;23;19977;-82
2022/06/25 00:34:29;;;;;;;;;;;17.80;79.10;;;;;;6117236;23;19997;-81
2022/06/25 00:36:55;;;;;;;;;;;17.80;79.20;;;;;;6095759;23;19924;-82
2022/06/25 00:39:22;;;;;;;;;;;17.80;78.70;;;;;;6106064;23;19925;-82
2022/06/25 00:41:49;;;;;;;;;;;17.80;78.40;;;;;;6107140;23;20252;-81
2022/06/25 00:44:16;;;;;;;;;;;17.80;78.20;;;;;;6112581;23;19921;-82
2022/06/25 00:46:49;;;;;;;;;;;17.80;77.90;;;;;;6113843;23;20369;-82
2022/06/25 00:49:15;;;;;;;;;;;17.80;77.50;;;;;;6099099;23;19925;-81
2022/06/25 00:51:44;;;;;;;;;;;17.80;77.30;;;;;;6100551;23;19921;-82
2022/06/25 00:54:11;;;;;;;;;;;17.70;76.80;;;;;;6111989;23;19988;-81
2022/06/25 00:56:39;;;;;;;;;;;17.70;76.70;;;;;;6114496;23;19922;-81
2022/06/25 00:59:06;;;;;;;;;;;17.80;76.80;;;;;;6097615;23;19921;-81
2022/06/25 01:01:33;;;;;;;;;;;17.70;76.50;;;;;;6116214;23;19925;-81
2022/06/25 01:04:00;;;;;;;;;;;17.70;76.30;;;;;;6095730;23;19979;-81
2022/06/25 01:06:30;;;;;;;;;;;17.70;75.80;;;;;;6117711;23;20303;-80
2022/06/25 01:08:58;;;;;;;;;;;17.70;75.80;;;;;;6095069;23;19976;-81
2022/06/25 01:11:25;;;;;;;;;;;17.70;75.60;;;;;;6118106;23;19921;-81
2022/06/25 01:13:52;;;;;;;;;;;17.70;75.50;;;;;;6094808;23;20265;-81
2022/06/25 01:16:20;;;;;;;;;;;17.70;75.50;;;;;;6111564;23;19924;-81
2022/06/25 01:18:47;;;;;;;;;;;17.70;75.50;;;;;;6113669;23;19932;-81
2022/06/25 01:21:14;;;;;;;;;;;17.60;76.40;;;;;;6097089;23;19971;-81
2022/06/25 01:23:41;;;;;;;;;;;17.70;75.60;;;;;;6115166;23;20342;-81
2022/06/25 01:26:07;;;;;;;;;;;17.60;75.80;;;;;;6097133;23;20051;-81
2022/06/25 01:28:34;;;;;;;;;;;17.60;76.10;;;;;;6099711;23;19927;-81
2022/06/25 01:31:01;;;;;;;;;;;17.50;75.90;;;;;;6098904;23;19972;-81
2022/06/25 01:33:28;;;;;;;;;;;17.50;75.40;;;;;;6117799;23;20331;-81
2022/06/25 01:35:54;;;;;;;;;;;17.50;75.20;;;;;;6094602;23;19990;-81
2022/06/25 01:38:21;;;;;;;;;;;17.50;75.30;;;;;;6099226;23;20297;-81
2022/06/25 01:40:48;;;;;;;;;;;17.50;75.40;;;;;;6113443;23;20239;-81
2022/06/25 01:43:15;;;;;;;;;;;17.50;75.40;;;;;;6098036;23;19972;-80
2022/06/25 01:45:42;;;;;;;;;;;17.50;75.10;;;;;;6114360;23;19922;-80
2022/06/25 01:48:08;;;;;;;;;;;17.50;74.80;;;;;;6096102;23;19995;-81
2022/06/25 01:50:36;;;;;;;;;;;17.50;74.40;;;;;;6116112;23;20299;-81
2022/06/25 01:53:04;;;;;;;;;;;17.50;74.00;;;;;;6095360;23;19921;-81
2022/06/25 01:55:32;;;;;;;;;;;17.50;74.90;;;;;;6117023;23;20228;-81
2022/06/25 01:58:00;;;;;;;;;;;17.60;74.00;;;;;;6094566;23;19999;-81
2022/06/25 02:00:27;;;;;;;;;;;17.50;73.90;;;;;;6099531;23;20381;-81
2022/06/25 02:02:54;;;;;;;;;;;17.50;74.10;;;;;;6100102;23;19992;-81
2022/06/25 02:08:10;;;;;;;;;;;17.50;73.70;;;;;;6095080;23;19976;-81
2022/06/25 02:10:37;;;;;;;;;;;17.40;73.70;;;;;;6094401;23;20294;-81
2022/06/25 02:13:04;;;;;;;;;;;17.40;73.80;;;;;;6093897;23;19921;-82
2022/06/25 02:15:31;;;;;;;;;;;17.40;73.80;;;;;;6094607;23;19961;-81
2022/06/25 02:17:57;;;;;;;;;;;17.30;74.00;;;;;;6094479;23;20331;-81
2022/06/25 02:20:24;;;;;;;;;;;17.30;72.70;;;;;;6093985;23;19921;-81
2022/06/25 02:22:51;;;;;;;;;;;17.30;71.20;;;;;;6094656;23;19921;-80
2022/06/25 02:25:18;;;;;;;;;;;17.40;70.80;;;;;;6093433;23;19945;-81
2022/06/25 02:27:45;;;;;;;;;;;17.50;71.00;;;;;;6094514;23;19925;-82
2022/06/25 02:30:12;;;;;;;;;;;17.50;70.30;;;;;;6093136;23;19921;-81
2022/06/25 02:32:38;;;;;;;;;;;17.50;69.60;;;;;;6095036;23;19921;-81
2022/06/25 02:35:06;;;;;;;;;;;17.60;68.80;;;;;;6094184;23;19921;-82
2022/06/25 02:37:32;;;;;;;;;;;17.70;68.30;;;;;;6094384;23;19921;-81
2022/06/25 02:39:59;;;;;;;;;;;17.70;67.90;;;;;;6095248;23;19936;-81
2022/06/25 02:42:36;;;;;;;;;;;17.80;66.80;;;;;;6118180;23;20294;-81
2022/06/25 02:45:03;;;;;;;;;;;17.80;67.20;;;;;;6093265;23;19921;-81
2022/06/25 02:47:30;;;;;;;;;;;17.80;67.30;;;;;;6117964;23;19929;-82
2022/06/25 02:49:57;;;;;;;;;;;17.80;67.10;;;;;;6094127;23;19921;-81
2022/06/25 02:52:25;;;;;;;;;;;17.80;67.10;;;;;;6074379;23;19921;-81
2022/06/25 02:54:51;;;;;;;;;;;17.80;67.20;;;;;;6114189;23;20334;-82
2022/06/25 03:00:04;;;;;;;;;;;17.70;66.00;;;;;;6124282;23;20000;-82
2022/06/25 03:02:31;;;;;;;;;;;17.70;66.90;;;;;;6117548;23;19925;-81
2022/06/25 03:04:59;;;;;;;;;;;17.70;65.30;;;;;;6093464;23;20013;-81
2022/06/25 03:07:26;;;;;;;;;;;17.80;65.10;;;;;;6124162;23;19925;-81
2022/06/25 03:09:53;;;;;;;;;;;17.80;65.00;;;;;;6114923;23;19921;-81
2022/06/25 03:12:19;;;;;;;;;;;17.80;64.80;;;;;;6098762;23;19976;-81
2022/06/25 03:14:46;;;;;;;;;;;17.80;65.10;;;;;;6117263;23;19922;-81
2022/06/25 03:17:13;;;;;;;;;;;17.80;65.20;;;;;;6096791;23;19945;-81
2022/06/25 03:19:40;;;;;;;;;;;17.80;64.90;;;;;;6127185;23;19925;-82
2022/06/25 03:22:06;;;;;;;;;;;17.80;65.40;;;;;;6112322;23;20258;-82
2022/06/25 03:24:33;;;;;;;;;;;17.70;65.70;;;;;;6120158;23;19953;-81
2022/06/25 03:27:00;;;;;;;;;;;17.70;65.90;;;;;;6095409;23;19925;-81
2022/06/25 03:29:27;;;;;;;;;;;17.60;66.30;;;;;;6076127;23;19928;-81
2022/06/25 03:31:54;;;;;;;;;;;17.50;66.50;;;;;;6115681;23;20339;-81
2022/06/25 03:34:21;;;;;;;;;;;17.50;66.70;;;;;;6098370;23;19975;-81
2022/06/25 03:36:48;;;;;;;;;;;17.50;66.00;;;;;;6116855;23;19921;-81
2022/06/25 03:39:14;;;;;;;;;;;17.50;65.20;;;;;;6096863;23;19991;-81
2022/06/25 03:41:41;;;;;;;;;;;17.50;64.80;;;;;;6118319;23;20255;-82
2022/06/25 03:44:10;;;;;;;;;;;17.50;64.90;;;;;;6095427;23;19925;-82
2022/06/25 03:46:37;;;;;;;;;;;17.50;64.50;;;;;;6101415;23;19921;-81
2022/06/25 03:49:05;;;;;;;;;;;17.60;64.10;;;;;;6101254;23;20235;-81
2022/06/25 03:51:32;;;;;;;;;;;17.70;63.30;;;;;;6095341;23;19953;-81
2022/06/25 03:53:59;;;;;;;;;;;17.70;65.40;;;;;;6071970;23;19922;-81
2022/06/25 03:56:26;;;;;;;;;;;17.60;67.80;;;;;;6095453;23;20232;-81
2022/06/25 03:58:53;;;;;;;;;;;17.50;68.20;;;;;;6072268;23;20254;-81
2022/06/25 04:01:23;;;;;;;;;;;17.50;69.60;;;;;;6095465;23;19925;-81
2022/06/25 04:03:50;;;;;;;;;;;17.40;71.30;;;;;;6096090;23;19931;-81
2022/06/25 04:06:17;;;;;;;;;;;17.30;71.80;;;;;;6096253;23;20365;-81
2022/06/25 04:08:44;;;;;;;;;;;17.20;73.50;;;;;;6097031;23;19972;-81
2022/06/25 04:11:10;;;;;;;;;;;17.10;73.30;;;;;;6070767;23;20342;-81
2022/06/25 04:13:37;;;;;;;;;;;17.10;74.10;;;;;;6096557;23;19929;-81
2022/06/25 04:16:04;;;;;;;;;;;17.00;76.50;;;;;;6096360;23;19921;-81
2022/06/25 04:18:31;;;;;;;;;;;16.90;76.00;;;;;;6094955;23;20335;-81
2022/06/25 04:20:59;;;;;;;;;;;16.90;76.40;;;;;;6095775;23;19922;-82
2022/06/25 04:23:27;;;;;;;;;;;16.80;77.20;;;;;;6095203;23;19928;-81
2022/06/25 04:25:54;;;;;;;;;;;16.80;78.00;;;;;;6095596;23;19923;-81
2022/06/25 04:31:06;;;;;;;;;;;16.80;78.80;;;;;;6096965;23;19922;-81
2022/06/25 04:33:33;;;;;;;;;;;16.80;78.80;;;;;;6094860;23;20322;-81
2022/06/25 04:36:00;;;;;;;;;;;16.80;79.20;;;;;;6095530;23;19925;-81
2022/06/25 04:38:27;;;;;;;;;;;16.70;79.30;;;;;;6094900;23;20405;-81
2022/06/25 04:40:54;;;;;;;;;;;16.80;79.80;;;;;;6095739;23;19922;-81
2022/06/25 04:43:21;;;;;;;;;;;16.80;79.90;;;;;;6095957;23;19921;-81
2022/06/25 04:45:48;;;;;;;;;;;16.70;82.30;;;;;;6095321;23;20334;-81
2022/06/25 04:48:14;;;;;;;;;;;16.70;82.30;;;;;;6095946;23;19921;-81
2022/06/25 04:50:45;;;;;;;;;;;16.70;82.90;;;;;;6095371;23;19932;-81
2022/06/25 04:53:12;;;;;;;;;;;16.70;82.20;;;;;;6094737;23;19925;-81
2022/06/25 04:55:39;;;;;;;;;;;16.70;83.10;;;;;;6095169;23;19921;-81
2022/06/25 04:58:06;;;;;;;;;;;16.70;82.90;;;;;;6095510;23;19921;-81
2022/06/25 05:00:32;;;;;;;;;;;16.80;82.50;;;;;;6094225;23;20286;-81
2022/06/25 05:03:06;;;;;;;;;;;16.80;82.10;;;;;;6095261;23;19925;-80
2022/06/25 05:05:33;;;;;;;;;;;16.80;81.80;;;;;;6094945;23;20286;-81
2022/06/25 05:08:00;;;;;;;;;;;16.80;81.50;;;;;;6095032;23;19932;-81
2022/06/25 05:10:27;;;;;;;;;;;16.90;81.40;;;;;;6094637;23;19928;-81
2022/06/25 05:13:12;;;;;;;;;;;16.90;81.20;;;;;;6096280;23;19921;-81
2022/06/25 05:15:42;;;;;;;;;;;16.90;81.10;;;;;;6118082;23;19921;-80
2022/06/25 05:18:11;;;;;;;;;;;17.00;81.50;;;;;;6094252;23;19965;-80
2022/06/25 05:20:39;;;;;;;;;;;17.00;81.80;;;;;;6111467;23;19920;-80
2022/06/25 05:23:06;;;;;;;;;;;17.10;81.60;;;;;;6100407;23;19920;-80
2022/06/25 05:25:33;;;;;;;;;;;17.10;81.70;;;;;;6095413;23;19921;-81
2022/06/25 05:28:00;;;;;;;;;;;17.20;81.90;;;;;;6095400;23;19972;-80
2022/06/25 05:30:27;;;;;;;;;;;17.30;82.80;;;;;;6094284;23;20047;-80
2022/06/25 05:32:54;;;;;;;;;;;17.30;81.90;;;;;;6094678;23;19944;-80
2022/06/25 05:35:20;;;;;;;;;;;17.40;81.20;;;;;;6094265;23;20296;-80
2022/06/25 05:37:47;;;;;;;;;;;17.50;79.60;;;;;;6095126;23;19925;-80
2022/06/25 05:40:14;;;;;;;;;;;17.60;78.10;;;;;;6095018;23;19922;-80
2022/06/25 05:42:41;;;;;;;;;;;17.70;76.90;;;;;;6123316;23;19925;-80
2022/06/25 05:45:08;;;;;;;;;;;17.80;75.50;;;;;;6099746;23;19995;-81
2022/06/25 05:47:35;;;;;;;;;;;17.80;76.00;;;;;;6110955;23;19973;-81
2022/06/25 05:50:03;;;;;;;;;;;17.90;75.60;;;;;;6114812;23;19925;-81
2022/06/25 05:52:30;;;;;;;;;;;18.00;73.10;;;;;;6096653;23;19928;-81
2022/06/25 05:54:57;;;;;;;;;;;18.10;69.60;;;;;;6099778;23;19967;-80
2022/06/25 05:57:24;;;;;;;;;;;18.20;70.20;;;;;;6111157;23;19977;-80
2022/06/25 05:59:50;;;;;;;;;;;18.30;70.20;;;;;;6117592;23;20382;-80
2022/06/25 06:02:17;;;;;;;;;;;18.30;64.90;;;;;;6093595;23;19928;-81
2022/06/25 06:04:44;;;;;;;;;;;18.40;63.60;;;;;;6099625;23;19976;-80
2022/06/25 06:07:11;;;;;;;;;;;18.40;63.10;;;;;;6113378;23;19991;-80
2022/06/25 06:09:38;;;;;;;;;;;18.50;63.60;;;;;;6097737;23;20000;-80
2022/06/25 06:12:05;;;;;;;;;;;18.50;63.20;;;;;;6114688;23;20288;-81
2022/06/25 06:14:34;;;;;;;;;;;18.60;63.10;;;;;;6096809;23;20261;-81
2022/06/25 06:17:01;;;;;;;;;;;18.70;62.40;;;;;;6115256;23;19921;-81
2022/06/25 06:19:28;;;;;;;;;;;18.80;61.60;;;;;;6095810;23;19921;-80
2022/06/25 06:21:55;;;;;;;;;;;18.80;61.80;;;;;;6116702;23;19929;-80
2022/06/25 06:24:21;;;;;;;;;;;18.90;61.40;;;;;;6094235;23;19921;-80
2022/06/25 06:26:48;;;;;;;;;;;19.00;61.70;;;;;;6117478;23;20398;-81
2022/06/25 06:29:17;;;;;;;;;;;19.10;61.20;;;;;;6094062;23;19931;-80
2022/06/25 06:31:44;;;;;;;;;;;19.20;61.20;;;;;;6086663;23;19927;-81
2022/06/25 06:34:11;;;;;;;;;;;19.30;59.90;;;;;;6113581;23;19929;-80
2022/06/25 06:36:38;;;;;;;;;;;19.40;60.20;;;;;;6097316;23;19921;-81
2022/06/25 06:39:04;;;;;;;;;;;19.50;59.90;;;;;;6115018;23;19922;-80
2022/06/25 06:41:31;;;;;;;;;;;19.50;59.30;;;;;;6095505;23;20307;-80
2022/06/25 06:43:58;;;;;;;;;;;19.70;58.40;;;;;;6116253;23;19977;-80
2022/06/25 06:46:25;;;;;;;;;;;19.80;57.90;;;;;;6096679;23;19946;-81
2022/06/25 06:48:52;;;;;;;;;;;19.90;58.40;;;;;;6119567;23;19930;-81
2022/06/25 06:51:18;;;;;;;;;;;20.00;58.50;;;;;;6096226;23;19948;-81
2022/06/25 06:53:45;;;;;;;;;;;20.10;58.50;;;;;;6125744;23;19929;-80
2022/06/25 06:56:12;;;;;;;;;;;20.20;57.80;;;;;;6126702;23;20254;-81
2022/06/25 06:58:39;;;;;;;;;;;20.30;57.60;;;;;;6126165;23;20346;-80
2022/06/25 07:01:05;;;;;;;;;;;20.40;57.80;;;;;;6116725;23;20394;-81
2022/06/25 07:03:32;;;;;;;;;;;20.40;57.10;;;;;;6097631;23;19925;-81
2022/06/25 07:05:59;;;;;;;;;;;20.60;57.30;;;;;;6118045;23;19921;-81
2022/06/25 07:08:26;;;;;;;;;;;20.70;57.70;;;;;;6121522;23;19921;-81
2022/06/25 07:10:53;;;;;;;;;;;20.80;56.10;;;;;;6107275;23;19925;-81
2022/06/25 07:13:20;;;;;;;;;;;20.90;55.70;;;;;;6109291;23;20297;-81
2022/06/25 07:15:47;;;;;;;;;;;21.00;55.30;;;;;;6124394;23;19921;-81
2022/06/25 07:18:13;;;;;;;;;;;21.10;55.00;;;;;;6115397;23;19988;-81
2022/06/25 07:20:40;;;;;;;;;;;21.20;54.50;;;;;;6098892;23;19925;-82
2022/06/25 07:23:07;;;;;;;;;;;21.30;51.80;;;;;;6101320;23;19968;-80
2022/06/25 07:25:34;;;;;;;;;;;21.50;51.30;;;;;;6112376;23;19925;-81
2022/06/25 07:28:01;;;;;;;;;;;21.60;52.20;;;;;;6118039;23;19921;-81
2022/06/25 07:30:28;;;;;;;;;;;21.70;52.20;;;;;;6096282;23;19999;-80
2022/06/25 07:32:55;;;;;;;;;;;21.80;53.10;;;;;;6101413;23;19921;-81
2022/06/25 07:35:22;;;;;;;;;;;22.00;53.10;;;;;;6113528;23;20410;-80
2022/06/25 07:37:48;;;;;;;;;;;22.20;52.40;;;;;;6095461;23;19921;-81
2022/06/25 07:40:24;;;;;;;;;;;22.30;51.60;;;;;;6102791;23;19949;-81
2022/06/25 07:42:51;;;;;;;;;;;22.40;51.30;;;;;;6125879;23;19983;-80
2022/06/25 07:45:18;;;;;;;;;;;22.60;50.90;;;;;;6114468;23;19925;-80
2022/06/25 07:47:45;;;;;;;;;;;22.80;50.60;;;;;;6098707;23;19925;-81
2022/06/25 07:52:57;;;;;;;;;;;23.30;51.70;;;;;;6126030;23;19920;-81
2022/06/25 07:55:24;;;;;;;;;;;23.50;50.80;;;;;;6114277;23;19925;-81
2022/06/25 07:57:50;;;;;;;;;;;23.70;51.00;;;;;;6124432;23;19971;-81
2022/06/25 08:00:17;;;;;;;;;;;24.00;51.60;;;;;;6115872;23;19973;-81
2022/06/25 08:02:44;;;;;;;;;;;24.20;52.00;;;;;;6097519;23;19975;-81
2022/06/25 08:05:11;;;;;;;;;;;24.40;51.50;;;;;;6117071;23;19973;-81
2022/06/25 08:07:38;;;;;;;;;;;24.50;50.20;;;;;;6096206;23;19943;-81
2022/06/25 08:10:05;;;;;;;;;;;24.50;49.60;;;;;;6118246;23;19948;-80
2022/06/25 08:12:32;;;;;;;;;;;24.60;50.20;;;;;;6095631;23;19921;-81
2022/06/25 08:14:59;;;;;;;;;;;24.70;50.70;;;;;;6095212;23;19921;-81
2022/06/25 08:17:26;;;;;;;;;;;24.80;50.80;;;;;;6095868;23;20306;-81
2022/06/25 08:19:52;;;;;;;;;;;24.90;50.60;;;;;;6096283;23;19921;-81
2022/06/25 08:22:19;;;;;;;;;;;25.10;50.80;;;;;;6095551;23;19988;-81
2022/06/25 08:24:46;;;;;;;;;;;25.20;51.80;;;;;;6095965;23;20331;-81
2022/06/25 08:27:12;;;;;;;;;;;25.40;50.90;;;;;;6095442;23;19968;-81
2022/06/25 08:29:39;;;;;;;;;;;25.40;50.30;;;;;;6094523;23;19925;-81
2022/06/25 08:32:06;;;;;;;;;;;25.50;50.20;;;;;;6096915;23;19921;-81
2022/06/25 08:34:33;;;;;;;;;;;25.50;49.90;;;;;;6095419;23;19921;-81
2022/06/25 08:37:00;;;;;;;;;;;25.60;50.30;;;;;;6119163;23;19953;-81
2022/06/25 08:39:26;;;;;;;;;;;25.60;49.90;;;;;;6094261;23;19921;-81
2022/06/25 08:41:53;;;;;;;;;;;25.70;50.90;;;;;;6075874;23;19949;-81
2022/06/25 08:44:20;;;;;;;;;;;25.80;51.00;;;;;;6125882;23;19921;-81
2022/06/25 08:46:47;;;;;;;;;;;25.90;50.60;;;;;;6111390;23;19972;-81
2022/06/25 08:49:15;;;;;;;;;;;25.90;50.90;;;;;;6100229;23;19925;-81
2022/06/25 08:51:43;;;;;;;;;;;25.90;51.10;;;;;;6074297;23;19922;-81
2022/06/25 08:54:10;;;;;;;;;;;25.90;50.80;;;;;;6095707;23;19980;-81
2022/06/25 08:56:37;;;;;;;;;;;25.90;51.50;;;;;;6094203;23;20177;-81
2022/06/25 08:59:04;;;;;;;;;;;25.90;51.90;;;;;;6072035;23;19925;-81
2022/06/25 09:01:30;;;;;;;;;;;25.90;51.30;;;;;;6071265;23;19925;-81
2022/06/25 09:03:58;;;;;;;;;;;26.00;51.90;;;;;;6094446;23;19925;-81
2022/06/25 09:06:25;;;;;;;;;;;26.20;51.10;;;;;;6094860;23;19921;-81
2022/06/25 09:09:07;;;;;;;;;;;26.30;51.30;;;;;;6095507;23;19922;-81
2022/06/25 09:11:47;;;;;;;;;;;26.40;51.70;;;;;;6119282;23;20339;-81
2022/06/25 09:14:24;;;;;;;;;;;26.50;51.70;;;;;;6094325;23;19984;-81
2022/06/25 09:17:04;;;;;;;;;;;26.60;51.00;;;;;;6095608;23;20307;-81
2022/06/25 09:19:33;;;;;;;;;;;26.70;50.30;;;;;;6095055;23;19921;-81
2022/06/25 09:22:02;;;;;;;;;;;26.90;51.40;;;;;;6094530;23;20409;-81
2022/06/25 09:24:46;;;;;;;;;;;27.20;52.90;;;;;;6070978;23;20290;-81
2022/06/25 09:27:15;;;;;;;;;;;27.30;51.50;;;;;;6094077;23;19949;-81
2022/06/25 09:29:43;;;;;;;;;;;27.40;48.70;;;;;;6095015;23;19928;-81
2022/06/25 09:32:10;;;;;;;;;;;27.40;49.60;;;;;;6094006;23;19929;-81
2022/06/25 09:34:38;;;;;;;;;;;27.40;49.40;;;;;;6096389;23;19929;-81
2022/06/25 09:37:25;;;;;;;;;;;27.50;49.40;;;;;;6093811;23;20240;-81
2022/06/25 09:39:53;;;;;;;;;;;27.60;48.80;;;;;;6095362;23;19946;-81
2022/06/25 09:42:24;;;;;;;;;;;27.70;47.30;;;;;;6096168;23;19965;-81
2022/06/25 09:45:08;;;;;;;;;;;27.60;47.40;;;;;;6093289;23;19921;-81
2022/06/25 09:47:36;;;;;;;;;;;27.80;48.50;;;;;;6094386;23;20433;-81
2022/06/25 09:50:13;;;;;;;;;;;27.90;47.80;;;;;;6093672;23;20364;-81
2022/06/25 09:52:54;;;;;;;;;;;28.00;48.10;;;;;;6094851;23;19932;-81
2022/06/25 09:55:23;;;;;;;;;;;28.20;46.60;;;;;;6094247;23;19971;-82
2022/06/25 09:57:53;;;;;;;;;;;28.40;47.50;;;;;;6096336;23;20402;-81
2022/06/25 10:00:21;;;;;;;;;;;28.50;45.70;;;;;;6093916;23;19992;-81
2022/06/25 10:02:48;;;;;;;;;;;28.60;45.20;;;;;;6095132;23;19925;-81
2022/06/25 10:05:21;;;;;;;;;;;28.60;45.20;;;;;;6094397;23;19988;-81
2022/06/25 10:07:59;;;;;;;;;;;28.60;45.70;;;;;;6094754;23;20306;-81
2022/06/25 10:10:45;;;;;;;;;;;28.60;45.30;;;;;;6118417;23;19925;-81
2022/06/25 10:13:13;;;;;;;;;;;28.50;46.00;;;;;;6096414;23;19921;-81
2022/06/25 10:15:40;;;;;;;;;;;28.40;45.40;;;;;;6115977;23;19922;-82
2022/06/25 10:18:09;;;;;;;;;;;28.50;46.50;;;;;;6094803;23;19929;-81
2022/06/25 10:20:38;;;;;;;;;;;28.50;46.70;;;;;;6116885;23;19929;-81
2022/06/25 10:23:05;;;;;;;;;;;28.70;46.70;;;;;;6094410;23;20241;-81
2022/06/25 10:25:33;;;;;;;;;;;29.00;42.70;;;;;;6117449;23;19929;-81
2022/06/25 10:28:23;;;;;;;;;;;29.30;42.40;;;;;;6094062;23;19921;-81
2022/06/25 10:30:50;;;;;;;;;;;29.40;41.90;;;;;;6072432;23;19921;-81
2022/06/25 10:33:20;;;;;;;;;;;29.50;40.80;;;;;;6112959;23;19921;-81
2022/06/25 10:35:48;;;;;;;;;;;29.50;40.50;;;;;;6097929;23;19921;-82
2022/06/25 10:38:22;;;;;;;;;;;29.40;40.40;;;;;;6113247;23;19969;-82
2022/06/25 10:40:50;;;;;;;;;;;29.40;39.40;;;;;;6098654;23;19921;-82
2022/06/25 10:43:36;;;;;;;;;;;29.30;39.30;;;;;;6113171;23;19943;-82
2022/06/25 10:46:41;;;;;;;;;;;29.40;39.50;;;;;;6117761;23;19925;-81
2022/06/25 10:49:10;;;;;;;;;;;29.50;40.00;;;;;;5955833;24;19926;-82
2022/06/25 10:51:40;;;;;;;;;;;29.50;39.10;;;;;;6098914;23;19932;-81
2022/06/25 10:54:12;;;;;;;;;;;29.60;40.10;;;;;;6098199;23;19928;-82
2022/06/25 10:56:46;;;;;;;;;;;29.60;39.00;;;;;;6112196;23;19961;-82
2022/06/25 10:59:31;;;;;;;;;;;29.70;39.30;;;;;;6093880;23;19927;-82
2022/06/25 11:01:59;;;;;;;;;;;29.80;39.00;;;;;;6120684;23;19924;-82
2022/06/25 11:04:29;;;;;;;;;;;29.80;39.50;;;;;;6115991;23;19925;-81
2022/06/25 11:07:10;;;;;;;;;;;29.80;40.40;;;;;;6120260;23;20314;-82
2022/06/25 11:09:37;;;;;;;;;;;29.90;39.30;;;;;;6099234;23;20243;-82
2022/06/25 11:12:07;;;;;;;;;;;30.00;38.40;;;;;;6096287;23;19925;-82
2022/06/25 11:14:34;;;;;;;;;;;30.00;39.10;;;;;;6094166;23;19922;-82
2022/06/25 11:17:08;;;;;;;;;;;30.00;38.60;;;;;;6094020;23;19921;-82
2022/06/25 11:19:40;;;;;;;;;;;30.00;39.00;;;;;;6094176;23;19973;-82
2022/06/25 11:22:07;;;;;;;;;;;30.10;39.30;;;;;;6093480;23;19933;-82
2022/06/25 11:24:34;;;;;;;;;;;30.10;41.20;;;;;;6094610;23;20254;-82
2022/06/25 11:29:48;;;;;;;;;;;30.30;40.00;;;;;;6096213;23;20250;-82
2022/06/25 11:32:20;;;;;;;;;;;30.30;40.50;;;;;;6119671;23;19925;-82
2022/06/25 11:34:51;;;;;;;;;;;30.40;39.70;;;;;;6095623;23;20354;-82
2022/06/25 11:37:18;;;;;;;;;;;30.50;40.50;;;;;;6124326;23;19976;-82
2022/06/25 11:39:45;;;;;;;;;;;30.60;40.80;;;;;;6114529;23;19973;-82
2022/06/25 11:42:12;;;;;;;;;;;30.60;41.00;;;;;;6099417;23;19921;-82
2022/06/25 11:44:53;;;;;;;;;;;30.60;40.80;;;;;;6115770;23;19944;-82
2022/06/25 11:47:28;;;;;;;;;;;30.80;41.30;;;;;;6090301;23;19937;-82
2022/06/25 11:49:55;;;;;;;;;;;31.00;40.50;;;;;;6114372;23;20291;-82
2022/06/25 11:52:23;;;;;;;;;;;31.00;39.70;;;;;;6099720;23;20839;-82
2022/06/25 11:54:51;;;;;;;;;;;31.00;40.50;;;;;;6115999;23;19971;-83
2022/06/25 11:57:19;;;;;;;;;;;31.10;41.20;;;;;;6098118;23;19921;-82
2022/06/25 11:59:46;;;;;;;;;;;31.20;39.50;;;;;;6116353;23;19921;-82
2022/06/25 12:02:13;;;;;;;;;;;31.20;39.10;;;;;;6097293;23;19928;-82
2022/06/25 12:04:46;;;;;;;;;;;31.10;40.60;;;;;;6118040;23;19921;-82
2022/06/25 12:07:17;;;;;;;;;;;31.20;41.30;;;;;;6094167;23;19921;-82
2022/06/25 12:09:44;;;;;;;;;;;31.30;39.30;;;;;;6117039;23;19921;-82
2022/06/25 12:12:11;;;;;;;;;;;31.30;40.80;;;;;;6096843;23;19975;-82
2022/06/25 12:14:38;;;;;;;;;;;31.40;40.30;;;;;;6126473;23;19925;-83
2022/06/25 12:17:05;;;;;;;;;;;31.60;39.10;;;;;;6112397;23;20311;-82
2022/06/25 12:19:46;;;;;;;;;;;31.60;37.00;;;;;;6126242;23;19924;-82
2022/06/25 12:22:22;;;;;;;;;;;31.70;36.20;;;;;;6112515;23;20405;-82
2022/06/25 12:24:49;;;;;;;;;;;31.70;36.00;;;;;;6126343;23;19921;-82
2022/06/25 12:27:16;;;;;;;;;;;31.60;34.30;;;;;;6112115;23;20335;-82
2022/06/25 12:29:51;;;;;;;;;;;31.20;35.40;;;;;;6126146;23;19978;-82
2022/06/25 12:32:18;;;;;;;;;;;30.90;36.60;;;;;;6111502;23;19932;-82
2022/06/25 12:34:46;;;;;;;;;;;30.70;37.10;;;;;;6116875;23;20381;-82
2022/06/25 12:37:25;;;;;;;;;;;30.80;37.20;;;;;;6121513;23;19921;-81
2022/06/25 12:39:52;;;;;;;;;;;31.00;38.10;;;;;;6100920;23;19971;-82
2022/06/25 12:42:20;;;;;;;;;;;31.10;38.00;;;;;;6099828;23;19981;-82
2022/06/25 12:44:47;;;;;;;;;;;31.20;38.30;;;;;;6115870;23;19944;-82
2022/06/25 12:47:14;;;;;;;;;;;31.20;37.60;;;;;;6096722;23;19972;-82
2022/06/25 12:49:47;;;;;;;;;;;31.40;37.50;;;;;;6100605;23;19928;-82
2022/06/25 12:52:16;;;;;;;;;;;31.40;36.30;;;;;;6074234;23;19988;-81
2022/06/25 12:54:45;;;;;;;;;;;31.60;35.10;;;;;;6095234;23;19922;-82
2022/06/25 12:57:22;;;;;;;;;;;31.80;34.70;;;;;;6094656;23;19921;-82
2022/06/25 12:59:49;;;;;;;;;;;32.00;35.70;;;;;;6095566;23;19924;-82
2022/06/25 13:02:16;;;;;;;;;;;32.00;35.50;;;;;;6094331;23;19921;-82
2022/06/25 13:04:43;;;;;;;;;;;32.00;34.90;;;;;;6095265;23;20258;-82
2022/06/25 13:07:11;;;;;;;;;;;32.20;36.50;;;;;;6094493;23;19925;-82
2022/06/25 13:09:40;;;;;;;;;;;32.30;34.80;;;;;;6096308;23;19925;-81
2022/06/25 13:12:22;;;;;;;;;;;32.30;35.00;;;;;;6094823;23;19921;-84
2022/06/25 13:14:49;;;;;;;;;;;32.50;35.60;;;;;;6095577;23;19921;-82
2022/06/25 13:17:16;;;;;;;;;;;32.70;35.40;;;;;;6094319;23;19945;-83
2022/06/25 13:19:45;;;;;;;;;;;32.70;35.80;;;;;;6094999;23;19921;-81
2022/06/25 13:22:12;;;;;;;;;;;32.50;36.90;;;;;;6094270;23;19921;-82
2022/06/25 13:24:39;;;;;;;;;;;32.30;37.30;;;;;;6095077;23;19925;-82
2022/06/25 13:27:06;;;;;;;;;;;32.30;37.90;;;;;;6095535;23;19945;-81
2022/06/25 13:29:33;;;;;;;;;;;32.20;36.60;;;;;;6094185;23;19928;-81
2022/06/25 13:32:00;;;;;;;;;;;31.90;35.70;;;;;;6095406;23;19925;-81
2022/06/25 13:34:27;;;;;;;;;;;31.70;37.30;;;;;;6094270;23;19952;-83
2022/06/25 13:36:55;;;;;;;;;;;31.50;37.30;;;;;;6096608;23;19921;-82
2022/06/25 13:39:22;;;;;;;;;;;31.60;37.80;;;;;;6094500;23;19921;-83
2022/06/25 13:41:50;;;;;;;;;;;31.70;37.50;;;;;;6095503;23;19972;-82
2022/06/25 13:44:18;;;;;;;;;;;32.00;37.50;;;;;;6094406;23;19973;-83
2022/06/25 13:46:47;;;;;;;;;;;32.30;36.70;;;;;;6095341;23;19925;-83
2022/06/25 13:49:14;;;;;;;;;;;32.50;37.00;;;;;;6093822;23;19992;-82
2022/06/25 13:51:41;;;;;;;;;;;32.60;35.80;;;;;;6095149;23;20405;-82
2022/06/25 13:54:08;;;;;;;;;;;32.70;35.30;;;;;;6095318;23;19974;-83
2022/06/25 13:56:36;;;;;;;;;;;32.70;35.10;;;;;;6093965;23;20239;-83
2022/06/25 13:59:03;;;;;;;;;;;32.70;35.70;;;;;;6094985;23;20346;-82
2022/06/25 14:01:30;;;;;;;;;;;32.70;37.50;;;;;;6093765;23;19928;-82
2022/06/25 14:03:57;;;;;;;;;;;32.80;34.30;;;;;;6095170;23;19921;-82
2022/06/25 14:06:24;;;;;;;;;;;32.60;33.40;;;;;;6094081;23;19973;-82
2022/06/25 14:08:51;;;;;;;;;;;32.60;34.10;;;;;;6095204;23;19922;-83
2022/06/25 14:11:18;;;;;;;;;;;32.70;35.60;;;;;;6093962;23;20351;-82
2022/06/25 14:13:45;;;;;;;;;;;32.90;34.80;;;;;;6094834;23;20244;-83
2022/06/25 14:16:12;;;;;;;;;;;33.20;34.20;;;;;;6096140;23;19921;-83
2022/06/25 14:18:39;;;;;;;;;;;33.20;35.00;;;;;;6093940;23;20347;-84
2022/06/25 14:21:06;;;;;;;;;;;32.90;34.70;;;;;;6096076;23;19976;-83
2022/06/25 14:23:35;;;;;;;;;;;32.60;35.00;;;;;;6094047;23;19944;-83
2022/06/25 14:26:02;;;;;;;;;;;32.60;36.00;;;;;;6094740;23;19922;-83
2022/06/25 14:28:29;;;;;;;;;;;32.60;34.80;;;;;;6094406;23;20303;-83
2022/06/25 14:30:56;;;;;;;;;;;32.40;35.90;;;;;;6094966;23;19972;-83
2022/06/25 14:33:22;;;;;;;;;;;32.40;35.80;;;;;;6093862;23;19928;-83
2022/06/25 14:44:12;;;;;;;;;;;32.30;34.20;;;;;;6095742;23;19972;-84
2022/06/25 14:46:39;;;;;;;;;;;32.30;33.50;;;;;;6093546;23;20017;-84
2022/06/25 14:49:06;;;;;;;;;;;32.40;33.40;;;;;;6094971;23;19921;-84
2022/06/25 14:51:32;;;;;;;;;;;32.50;33.60;;;;;;6093697;23;20258;-84